Time;durP1;ratioP1;P1;durP2;ratioP2;P2;SDS_P1;SDS_P2;PMS_P1;PMS_P2;Temp;Humidity;BMP_temperature;BMP_pressure;BME280_temperature;BME280_humidity;BME280_pressure;Samples;Min_cycle;Max_cycle;Signal;HPM_P1;HPM_P2
2021/06/02 00:00:02;;;;;;;2.63;0.40;;;;;;;10.28;69.02;94001.09;5096145;28;20020;-75
2021/06/02 00:02:28;;;;;;;0.90;0.60;;;;;;;10.23;69.14;94003.88;5090381;28;20019;-75
2021/06/02 00:04:54;;;;;;;2.40;0.75;;;;;;;10.28;69.09;94001.09;5105292;28;20069;-75
2021/06/02 00:07:26;;;;;;;0.88;0.63;;;;;;;10.31;68.97;94002.38;5097498;28;20024;-74
2021/06/02 00:09:54;;;;;;;5.40;0.80;;;;;;;10.27;68.84;94001.38;5094549;28;20093;-74
2021/06/02 00:12:20;;;;;;;1.92;0.70;;;;;;;10.22;69.49;93999.66;5089489;28;20406;-75
2021/06/02 00:14:46;;;;;;;1.52;0.68;;;;;;;10.22;69.07;93995.09;5089929;28;20103;-75
2021/06/02 00:17:11;;;;;;;1.00;0.70;;;;;;;10.18;68.98;93988.81;5098444;28;20034;-74
2021/06/02 00:19:38;;;;;;;3.95;0.52;;;;;;;10.18;69.27;93986.16;5100466;28;20389;-75
2021/06/02 00:22:07;;;;;;;2.88;0.73;;;;;;;10.22;68.89;93981.78;5107588;28;20030;-75
2021/06/02 00:24:33;;;;;;;0.70;0.47;;;;;;;10.21;68.92;93980.19;5107166;28;20055;-75
2021/06/02 00:27:02;;;;;;;0.63;0.40;;;;;;;10.23;67.06;93964.69;5089668;28;20020;-75
2021/06/02 00:29:31;;;;;;;1.05;0.65;;;;;;;10.20;67.98;93978.66;5089798;28;20115;-75
2021/06/02 00:31:57;;;;;;;0.90;0.40;;;;;;;10.16;67.91;93979.56;5101004;28;20032;-75
2021/06/02 00:34:24;;;;;;;0.65;0.47;;;;;;;10.16;67.17;93968.91;5101556;28;20020;-75
2021/06/02 00:36:50;;;;;;;1.83;0.50;;;;;;;10.16;66.62;93975.03;5102962;28;20055;-74
2021/06/02 00:39:17;;;;;;;1.30;0.40;;;;;;;10.17;66.77;93983.78;5098607;28;20031;-75
2021/06/02 00:41:44;;;;;;;0.38;0.30;;;;;;;10.20;66.64;93981.31;5112842;28;20066;-75
2021/06/02 00:44:13;;;;;;;0.68;0.45;;;;;;;10.20;65.89;93983.19;5094417;28;20473;-75
2021/06/02 00:46:40;;;;;;;3.33;0.50;;;;;;;10.18;66.14;93983.50;5113480;28;20023;-75
2021/06/02 00:49:11;;;;;;;4.53;0.70;;;;;;;10.26;66.01;93989.97;5092414;28;20070;-75
2021/06/02 00:51:37;;;;;;;1.55;0.90;;;;;;;10.25;66.30;93980.38;5099353;28;20016;-75
2021/06/02 00:54:04;;;;;;;1.67;1.05;;;;;;;10.25;67.04;93975.81;5114236;28;20046;-75
2021/06/02 00:56:52;;;;;;;1.58;0.90;;;;;;;10.24;67.37;93987.59;5103667;28;20076;-75
2021/06/02 00:59:22;;;;;;;1.63;0.85;;;;;;;10.31;66.97;93983.72;5101364;28;20023;-75
2021/06/02 01:01:48;;;;;;;4.13;0.80;;;;;;;10.32;67.79;93988.75;5105419;27;20023;-74
2021/06/02 01:04:15;;;;;;;5.32;1.40;;;;;;;10.33;67.83;93986.88;5112440;28;20114;-74
2021/06/02 01:06:44;;;;;;;1.30;0.93;;;;;;;10.36;68.12;93989.72;5101504;28;20467;-74
2021/06/02 01:09:09;;;;;;;4.25;1.55;;;;;;;10.43;67.98;93994.59;5089254;28;20040;-74
2021/06/02 01:11:36;;;;;;;3.47;1.55;;;;;;;10.33;68.48;93997.53;5091903;28;20034;-74
2021/06/02 01:14:04;;;;;;;2.83;1.40;;;;;;;10.34;68.89;93994.56;5093272;28;20095;-74
2021/06/02 01:16:35;;;;;;;3.22;1.20;;;;;;;10.38;68.78;94002.69;5093098;28;20031;-75
2021/06/02 01:19:01;;;;;;;4.13;1.48;;;;;;;10.35;68.97;94003.34;5093253;28;20032;-74
2021/06/02 01:21:30;;;;;;;3.33;1.75;;;;;;;10.39;69.11;93993.63;5106730;28;20030;-74
2021/06/02 01:24:00;;;;;;;5.85;1.88;;;;;;;10.37;69.51;93998.47;5108483;28;20145;-74
2021/06/02 01:26:27;;;;;;;4.00;1.70;;;;;;;10.34;69.47;93988.44;5096711;28;20019;-74
2021/06/02 01:28:53;;;;;;;3.20;2.00;;;;;;;10.32;68.92;93990.63;5096212;28;20495;-74
2021/06/02 01:31:51;;;;;;;6.13;1.70;;;;;;;10.25;69.15;93991.81;5108203;28;20019;-73
2021/06/02 01:34:31;;;;;;;4.20;1.48;;;;;;;10.17;69.38;93995.22;5093090;28;20016;-74
2021/06/02 01:37:15;;;;;;;3.70;1.70;;;;;;;10.12;69.79;93998.03;5110028;28;20042;-74
2021/06/02 01:40:19;;;;;;;3.67;1.85;;;;;;;10.13;69.56;93986.28;5111743;28;20458;-74
2021/06/02 01:43:06;;;;;;;2.90;1.92;;;;;;;10.09;70.16;93981.88;5082909;28;20027;-74
2021/06/02 01:45:37;;;;;;;6.45;2.20;;;;;;;10.11;69.85;93993.00;5105936;28;20475;-75
2021/06/02 01:48:32;;;;;;;5.60;2.15;;;;;;;10.06;70.04;93993.16;5089824;28;20027;-75
2021/06/02 01:51:24;;;;;;;5.78;2.30;;;;;;;10.00;70.08;93997.81;5093001;28;20496;-75
2021/06/02 01:54:19;;;;;;;5.82;3.13;;;;;;;9.97;70.52;93993.09;5091090;28;20028;-75
2021/06/02 01:57:15;;;;;;;7.28;2.40;;;;;;;9.92;70.45;93998.56;5109480;28;20490;-74
2021/06/02 01:59:57;;;;;;;4.93;2.47;;;;;;;9.92;70.90;93998.56;5112791;28;20031;-73
2021/06/02 02:02:51;;;;;;;6.30;2.73;;;;;;;9.96;70.79;94000.31;5090380;28;20032;-73
2021/06/02 02:05:48;;;;;;;5.90;3.05;;;;;;;9.93;71.30;93995.59;5090917;28;20450;-74
2021/06/02 02:08:16;;;;;;;7.00;3.85;;;;;;;9.97;70.95;94001.06;5110425;28;20107;-74
2021/06/02 02:11:06;;;;;;;8.00;4.10;;;;;;;10.00;70.95;93995.16;5111200;28;20506;-74
2021/06/02 02:13:37;;;;;;;12.45;4.15;;;;;;;9.89;71.45;93993.84;5103020;28;20024;-74
2021/06/02 02:16:29;;;;;;;6.68;4.40;;;;;;;9.84;71.78;93998.19;5111091;28;20079;-74
2021/06/02 02:19:07;;;;;;;6.80;4.20;;;;;;;9.77;72.21;94003.19;5111064;28;20031;-73
2021/06/02 02:21:53;;;;;;;7.95;5.10;;;;;;;9.76;72.25;94003.47;5112453;28;20077;-74
2021/06/02 02:24:44;;;;;;;12.63;4.82;;;;;;;9.74;72.21;94003.78;5111004;28;20429;-74
2021/06/02 02:27:34;;;;;;;8.57;4.70;;;;;;;9.72;72.79;94005.94;5105146;28;20120;-73
2021/06/02 02:30:21;;;;;;;13.80;5.60;;;;;;;9.67;72.96;94016.72;5110696;28;20110;-73
2021/06/02 02:33:11;;;;;;;9.73;5.53;;;;;;;9.64;72.93;94015.44;5112060;28;20525;-73
2021/06/02 02:35:58;;;;;;;12.90;5.43;;;;;;;9.66;73.25;94022.34;5110783;28;20026;-74
2021/06/02 02:38:54;;;;;;;8.95;5.90;;;;;;;9.73;72.95;94023.50;5091569;28;20035;-74
2021/06/02 02:41:48;;;;;;;9.63;6.38;;;;;;;9.68;72.83;94020.94;5091947;28;20031;-74
2021/06/02 02:44:38;;;;;;;11.60;6.22;;;;;;;9.64;73.20;94031.41;5091618;28;20085;-74
2021/06/02 02:47:11;;;;;;;11.30;6.38;;;;;;;9.72;72.87;94029.91;5090061;28;20039;-75
2021/06/02 02:49:54;;;;;;;11.40;6.25;;;;;;;9.73;72.84;94025.34;5093922;28;20032;-74
2021/06/02 02:52:19;;;;;;;9.65;6.30;;;;;;;9.71;72.99;94031.00;5111684;28;20565;-73
2021/06/02 02:55:01;;;;;;;10.93;7.05;;;;;;;9.71;72.88;94030.19;5110493;28;20035;-74
2021/06/02 02:57:36;;;;;;;10.45;7.15;;;;;;;9.67;72.78;94027.38;5111601;28;20024;-74
2021/06/02 03:00:09;;;;;;;10.30;6.18;;;;;;;9.69;72.97;94029.72;5106131;28;20043;-74
2021/06/02 03:02:46;;;;;;;11.20;6.50;;;;;;;9.69;73.10;94025.19;5091237;28;20090;-74
2021/06/02 03:05:17;;;;;;;8.50;6.40;;;;;;;9.69;72.69;94017.22;5092162;28;20093;-75
2021/06/02 03:07:49;;;;;;;11.30;6.07;;;;;;;9.67;72.87;94014.06;5090454;28;20024;-75
2021/06/02 03:10:18;;;;;;;12.98;7.10;;;;;;;9.67;72.66;94030.03;5105064;28;20031;-74
2021/06/02 03:13:04;;;;;;;10.95;6.70;;;;;;;9.68;72.64;94030.81;5093902;28;20049;-74
2021/06/02 03:15:44;;;;;;;11.55;6.88;;;;;;;9.70;72.99;94034.75;5107930;28;20032;-74
2021/06/02 03:18:22;;;;;;;11.80;6.55;;;;;;;9.70;72.55;94029.41;5090668;28;20461;-74
2021/06/02 03:20:53;;;;;;;13.23;6.30;;;;;;;9.73;72.63;94033.34;5104740;28;20028;-74
2021/06/02 03:23:56;;;;;;;12.05;7.05;;;;;;;9.71;72.57;94052.28;5109966;28;20054;-74
2021/06/02 03:26:26;;;;;;;;;;;;;;;9.71;72.55;94043.50;5105895;28;20031;-74
2021/06/02 03:29:23;;;;;;;11.20;5.78;;;;;;;9.72;72.57;94040.56;5104139;28;19918;-74
2021/06/02 03:32:08;;;;;;;9.27;5.88;;;;;;;9.69;72.62;94049.16;5092092;28;20028;-74
2021/06/02 03:34:43;;;;;;;9.65;6.40;;;;;;;9.73;72.63;94059.97;5098985;28;20387;-74
2021/06/02 03:37:36;;;;;;;9.50;5.78;;;;;;;9.75;72.56;94047.94;5110730;28;20375;-74
2021/06/02 03:40:21;;;;;;;8.73;5.93;;;;;;;9.76;72.19;94062.81;5109790;28;20024;-74
2021/06/02 03:43:14;;;;;;;9.88;5.53;;;;;;;9.79;72.19;94064.88;5088019;28;20035;-74
2021/06/02 03:46:01;;;;;;;9.13;6.32;;;;;;;9.75;72.39;94071.91;5109398;28;20612;-74
2021/06/02 03:48:45;;;;;;;12.60;5.70;;;;;;;9.78;72.42;94068.63;5108437;28;20513;-74
2021/06/02 03:51:38;;;;;;;16.40;6.60;;;;;;;9.86;72.40;94079.66;5105797;28;20035;-74
2021/06/02 03:54:34;;;;;;;8.32;5.85;;;;;;;9.89;71.98;94077.16;5090009;28;20111;-74
2021/06/02 03:57:12;;;;;;;10.20;6.43;;;;;;;9.87;72.05;94075.88;5093050;28;20047;-74
2021/06/02 04:00:05;;;;;;;10.38;6.30;;;;;;;9.89;72.14;94079.03;5090159;28;20024;-74
2021/06/02 04:02:51;;;;;;;13.73;5.72;;;;;;;9.97;71.98;94076.44;5106246;28;20070;-74
2021/06/02 04:05:51;;;;;;;10.00;6.13;;;;;;;10.09;71.38;94081.19;5108745;28;20031;-75
2021/06/02 04:08:42;;;;;;;13.20;5.97;;;;;;;10.12;70.91;94090.47;5096850;28;20047;-75
2021/06/02 04:11:32;;;;;;;8.85;6.60;;;;;;;10.20;71.03;94101.19;5096858;28;20526;-75
2021/06/02 04:14:06;;;;;;;11.30;6.05;;;;;;;10.25;70.59;94102.91;5099674;28;20035;-75
2021/06/02 04:16:35;;;;;;;11.35;6.20;;;;;;;10.30;70.20;94097.50;5103604;28;20544;-75
2021/06/02 04:19:15;;;;;;;11.07;6.72;;;;;;;10.28;70.33;94090.84;5109176;28;20080;-75
2021/06/02 04:21:44;;;;;;;9.70;6.25;;;;;;;10.44;70.31;94089.41;5100020;28;20394;-75
2021/06/02 04:24:18;;;;;;;9.82;5.90;;;;;;;10.43;69.74;94093.97;5105067;28;20020;-75
2021/06/02 04:26:46;;;;;;;9.50;5.88;;;;;;;10.51;69.72;94100.44;5108680;28;20016;-75
2021/06/02 04:29:14;;;;;;;10.18;5.53;;;;;;;10.57;69.67;94107.19;5100026;28;20032;-75
2021/06/02 04:31:58;;;;;;;9.73;6.00;;;;;;;10.62;69.44;94115.06;5089948;28;20027;-75
2021/06/02 04:34:26;;;;;;;11.85;6.20;;;;;;;10.61;69.35;94108.16;5084662;28;20123;-75
2021/06/02 04:36:57;;;;;;;11.75;5.55;;;;;;;10.51;69.50;94108.44;5089757;28;20077;-75
2021/06/02 04:39:24;;;;;;;10.90;6.43;;;;;;;10.49;69.27;94117.81;5096891;28;20040;-74
2021/06/02 04:41:55;;;;;;;16.85;7.72;;;;;;;10.49;69.99;94110.59;5091230;28;20034;-74
2021/06/02 04:44:23;;;;;;;15.68;6.50;;;;;;;10.52;69.78;94123.34;5089761;28;20063;-74
2021/06/02 04:46:49;;;;;;;11.18;6.10;;;;;;;10.45;70.19;94120.31;5107028;28;20022;-74
2021/06/02 04:49:15;;;;;;;10.27;7.03;;;;;;;10.38;70.54;94127.94;5110076;28;20036;-74
2021/06/02 04:52:02;;;;;;;8.77;6.15;;;;;;;10.36;70.59;94124.78;5099520;28;20031;-74
2021/06/02 04:54:52;;;;;;;11.35;6.82;;;;;;;10.36;70.92;94119.47;5108343;28;20085;-73
2021/06/02 04:57:28;;;;;;;10.73;7.10;;;;;;;10.38;70.70;94123.41;5107245;28;20028;-74
2021/06/02 05:00:20;;;;;;;13.88;7.28;;;;;;;10.42;71.15;94126.22;5100122;28;20028;-73
2021/06/02 05:03:16;;;;;;;10.55;6.78;;;;;;;10.42;71.53;94123.56;5105669;28;20068;-74
2021/06/02 05:06:00;;;;;;;12.27;7.03;;;;;;;10.41;71.46;94132.66;5100128;28;20023;-73
2021/06/02 05:09:02;;;;;;;10.77;6.20;;;;;;;10.51;70.59;94129.75;5095136;28;20480;-75
2021/06/02 05:11:39;;;;;;;9.82;7.03;;;;;;;10.52;71.16;94134.00;5092861;28;20023;-74
2021/06/02 05:14:42;;;;;;;17.45;7.22;;;;;;;10.50;71.07;94136.19;5098135;28;20071;-74
2021/06/02 05:17:29;;;;;;;12.40;6.88;;;;;;;10.48;71.76;94127.69;5105256;28;20571;-75
2021/06/02 05:20:05;;;;;;;12.50;7.65;;;;;;;10.51;71.25;94134.28;5102671;28;20504;-74
2021/06/02 05:23:21;;;;;;;17.10;7.82;;;;;;;10.56;71.13;94140.28;5095752;28;20028;-74
2021/06/02 05:26:24;;;;;;;9.43;6.22;;;;;;;10.59;70.68;94142.34;5030829;28;20026;-74
2021/06/02 05:29:14;;;;;;;13.52;6.53;;;;;;;10.58;71.02;94142.63;5014119;28;20097;-74
2021/06/02 05:32:19;;;;;;;11.77;7.25;;;;;;;10.69;71.47;94148.50;5107008;28;20132;-75
2021/06/02 05:35:02;;;;;;;11.20;6.47;;;;;;;10.63;70.84;94150.50;5105760;28;20447;-74
2021/06/02 05:38:04;;;;;;;12.30;7.18;;;;;;;10.67;71.11;94156.81;5105401;28;20023;-75
2021/06/02 05:41:03;;;;;;;16.95;5.88;;;;;;;10.79;70.46;94148.25;5096136;28;20039;-74
2021/06/02 05:44:06;;;;;;;13.15;6.97;;;;;;;10.77;70.60;94148.53;5107165;28;20032;-74
2021/06/02 05:47:19;;;;;;;16.35;7.75;;;;;;;10.81;70.66;94151.38;5105331;28;20023;-75
2021/06/02 05:49:53;;;;;;;23.92;7.75;;;;;;;10.94;70.66;94139.81;5031735;28;20060;-75
2021/06/02 05:52:25;;;;;;;14.80;6.60;;;;;;;11.05;70.35;94140.31;5091679;28;20115;-74
2021/06/02 05:55:34;;;;;;;20.08;7.60;;;;;;;11.12;70.07;94154.00;5106738;28;20024;-73
2021/06/02 05:58:35;;;;;;;11.40;5.72;;;;;;;11.19;69.34;94138.34;5095792;28;20016;-73
2021/06/02 06:01:30;;;;;;;11.85;4.75;;;;;;;11.27;67.20;94146.69;5040871;28;20037;-73
2021/06/02 06:04:32;;;;;;;14.50;6.18;;;;;;;11.38;67.62;94135.41;5104135;28;20134;-73
2021/06/02 06:07:35;;;;;;;16.10;5.40;;;;;;;11.57;65.65;94140.47;5099081;28;20502;-74
2021/06/02 06:10:10;;;;;;;9.73;3.65;;;;;;;11.65;64.75;94146.91;5099721;28;20040;-75
2021/06/02 06:12:54;;;;;;;9.35;3.75;;;;;;;11.79;62.74;94144.13;5110873;28;20055;-74
2021/06/02 06:15:57;;;;;;;10.43;3.70;;;;;;;11.84;62.81;94142.09;5105318;28;20036;-75
2021/06/02 06:18:28;;;;;;;6.47;3.83;;;;;;;11.93;62.12;94149.34;5104591;28;20032;-74
2021/06/02 06:21:31;;;;;;;6.43;3.70;;;;;;;12.00;62.94;94145.06;5095490;28;20155;-69
2021/06/02 06:24:18;;;;;;;13.50;4.28;;;;;;;12.19;63.50;94144.78;5097262;28;20059;-69
2021/06/02 06:27:05;;;;;;;5.38;3.50;;;;;;;12.26;61.63;94160.31;5103187;28;20024;-69
2021/06/02 06:29:49;;;;;;;7.18;3.70;;;;;;;12.42;62.12;94150.72;5101521;28;20054;-68
2021/06/02 06:32:17;;;;;;;9.85;3.90;;;;;;;12.47;60.59;94154.31;5100572;28;20115;-69
2021/06/02 06:34:46;;;;;;;4.50;2.75;;;;;;;12.53;59.43;94145.03;5099049;28;20415;-70
2021/06/02 06:37:14;;;;;;;5.65;3.33;;;;;;;12.68;59.41;94154.44;5101797;28;20539;-70
2021/06/02 06:39:51;;;;;;;10.25;3.63;;;;;;;12.75;58.77;94152.84;5098311;28;20027;-70
2021/06/02 06:42:24;;;;;;;8.60;3.05;;;;;;;12.76;58.16;94149.06;5098285;28;20114;-69
2021/06/02 06:44:55;;;;;;;10.70;3.05;;;;;;;12.90;58.90;94154.19;5095635;28;20023;-69
2021/06/02 06:47:22;;;;;;;7.57;2.50;;;;;;;12.86;57.46;94142.56;5088943;28;20031;-74
2021/06/02 06:49:52;;;;;;;5.47;3.13;;;;;;;12.87;57.55;94146.84;5109934;28;20102;-73
2021/06/02 06:52:23;;;;;;;3.63;2.53;;;;;;;12.70;58.01;94153.03;5099178;28;20371;-72
2021/06/02 06:54:50;;;;;;;7.65;3.63;;;;;;;12.77;59.69;94152.53;5103482;28;20127;-73
2021/06/02 06:57:18;;;;;;;8.95;3.03;;;;;;;12.82;57.44;94152.34;5095882;28;20032;-72
2021/06/02 06:59:44;;;;;;;10.95;2.90;;;;;;;12.89;59.07;94160.66;5100962;28;20104;-72
2021/06/02 07:02:10;;;;;;;8.48;3.28;;;;;;;12.94;59.86;94151.69;5101409;28;20478;-73
2021/06/02 07:04:36;;;;;;;7.38;3.13;;;;;;;12.96;58.83;94152.91;5105512;28;20023;-72
2021/06/02 07:07:01;;;;;;;11.23;2.97;;;;;;;13.02;59.00;94150.88;5096866;28;20483;-73
2021/06/02 07:09:27;;;;;;;7.57;3.60;;;;;;;13.18;59.48;94159.16;5097203;28;20039;-73
2021/06/02 07:11:57;;;;;;;10.35;3.53;;;;;;;13.33;57.90;94173.91;5100494;28;20057;-72
2021/06/02 07:14:25;;;;;;;5.38;2.35;;;;;;;13.44;58.38;94162.50;5097385;28;20016;-72
2021/06/02 07:16:51;;;;;;;4.82;3.38;;;;;;;13.49;57.64;94158.06;5099490;28;20068;-72
2021/06/02 07:19:20;;;;;;;6.90;2.90;;;;;;;13.51;57.62;94158.53;5099497;28;20063;-72
2021/06/02 07:21:47;;;;;;;10.70;3.42;;;;;;;13.60;58.85;94167.31;5101889;28;20019;-72
2021/06/02 07:24:17;;;;;;;5.32;2.35;;;;;;;13.55;56.42;94164.81;5101024;28;20118;-72
2021/06/02 07:26:43;;;;;;;3.88;2.45;;;;;;;13.56;55.68;94161.03;5095535;28;22128;-73
2021/06/02 07:29:08;;;;;;;6.57;2.33;;;;;;;13.51;57.28;94163.91;5100103;28;20111;-72
2021/06/02 07:31:33;;;;;;;5.50;2.47;;;;;;;13.48;55.83;94156.53;5102345;28;20030;-72
2021/06/02 07:33:59;;;;;;;5.70;2.90;;;;;;;13.53;55.80;94161.69;5100861;28;20019;-72
2021/06/02 07:36:24;;;;;;;5.55;2.72;;;;;;;13.62;55.45;94154.38;5100056;28;20040;-72
2021/06/02 07:38:50;;;;;;;5.30;2.90;;;;;;;13.74;55.72;94142.94;5096063;28;20119;-72
2021/06/02 07:41:15;;;;;;;7.10;2.75;;;;;;;13.85;55.92;94141.47;5096881;28;20028;-74
2021/06/02 07:43:41;;;;;;;3.80;2.63;;;;;;;14.04;57.74;94146.34;5099820;28;20030;-70
2021/06/02 07:46:06;;;;;;;5.00;2.45;;;;;;;14.23;55.67;94146.69;5102814;28;20039;-72
2021/06/02 07:48:31;;;;;;;7.43;3.17;;;;;;;14.38;55.60;94144.50;5099269;28;20490;-72
2021/06/02 07:50:58;;;;;;;8.02;2.75;;;;;;;14.43;55.05;94149.66;5094739;28;20095;-72
2021/06/02 07:53:24;;;;;;;4.65;2.45;;;;;;;14.29;55.27;94152.63;5091746;28;20023;-72
2021/06/02 07:55:50;;;;;;;4.50;2.47;;;;;;;14.25;55.05;94155.19;5096888;28;20027;-72
2021/06/02 07:58:15;;;;;;;7.65;1.92;;;;;;;14.22;54.84;94147.00;5099851;28;20035;-71
2021/06/02 08:00:41;;;;;;;5.63;2.47;;;;;;;14.38;54.50;94147.19;5105877;28;20027;-71
2021/06/02 08:03:06;;;;;;;9.82;2.20;;;;;;;14.54;54.48;94150.81;5099368;28;20471;-71
2021/06/02 08:05:31;;;;;;;8.90;3.08;;;;;;;14.63;53.74;94151.56;5096838;28;20031;-71
2021/06/02 08:07:57;;;;;;;6.45;2.78;;;;;;;14.74;52.51;94154.59;5104497;28;20020;-71
2021/06/02 08:10:23;;;;;;;5.72;1.88;;;;;;;14.90;54.13;94167.38;5099394;28;20078;-71
2021/06/02 08:12:49;;;;;;;10.55;1.98;;;;;;;14.93;52.07;94156.75;5101376;28;20027;-71
2021/06/02 08:15:15;;;;;;;5.35;2.25;;;;;;;14.92;51.59;94151.72;5104053;28;20554;-71
2021/06/02 08:17:42;;;;;;;3.47;2.10;;;;;;;14.86;51.70;94161.91;5098680;28;20020;-72
2021/06/02 08:20:09;;;;;;;3.90;1.95;;;;;;;14.87;50.62;94151.94;5099109;28;20149;-72
2021/06/02 08:22:35;;;;;;;3.08;1.83;;;;;;;14.83;51.59;94151.81;5096436;28;20020;-72
2021/06/02 08:25:12;;;;;;;7.88;2.53;;;;;;;14.84;51.66;94164.13;5103490;28;20023;-71
2021/06/02 08:27:38;;;;;;;15.23;2.38;;;;;;;14.63;49.92;94162.28;5104803;28;20046;-72
2021/06/02 08:30:06;;;;;;;9.18;2.15;;;;;;;14.59;50.94;94160.59;5101842;28;20015;-71
2021/06/02 08:32:32;;;;;;;4.43;1.85;;;;;;;14.56;50.90;94162.03;5097307;28;20562;-71
2021/06/02 08:34:58;;;;;;;6.72;2.30;;;;;;;14.67;52.34;94151.66;5103639;28;20094;-70
2021/06/02 08:37:23;;;;;;;8.73;1.92;;;;;;;14.90;52.62;94151.25;5099994;28;20024;-70
2021/06/02 08:39:49;;;;;;;14.70;2.22;;;;;;;15.04;51.54;94160.59;5096469;28;20076;-71
2021/06/02 08:42:15;;;;;;;7.60;2.40;;;;;;;14.97;49.52;94160.34;5093880;28;20524;-71
2021/06/02 08:44:41;;;;;;;6.47;1.75;;;;;;;15.05;50.41;94143.34;5104398;28;20539;-69
2021/06/02 08:47:07;;;;;;;5.28;2.10;;;;;;;15.18;50.05;94162.16;5094633;28;20028;-71
2021/06/02 08:49:32;;;;;;;7.20;2.10;;;;;;;15.30;48.51;94148.75;5106896;28;20028;-71
2021/06/02 08:52:01;;;;;;;2.75;1.70;;;;;;;15.40;50.59;94150.97;5108411;28;20089;-71
2021/06/02 08:54:27;;;;;;;7.88;1.80;;;;;;;15.52;50.97;94169.00;5102239;28;20422;-71
2021/06/02 08:56:52;;;;;;;3.35;1.80;;;;;;;15.44;49.05;94162.63;5105122;28;20028;-71
2021/06/02 08:59:18;;;;;;;4.50;1.98;;;;;;;15.50;49.60;94162.41;5108028;28;20047;-71
2021/06/02 09:01:44;;;;;;;5.07;1.88;;;;;;;15.60;50.53;94161.94;5102288;28;20028;-71
2021/06/02 09:04:10;;;;;;;2.90;1.48;;;;;;;15.68;48.32;94161.06;5100657;28;20036;-71
2021/06/02 09:06:39;;;;;;;3.65;1.58;;;;;;;15.83;47.37;94160.41;5104046;28;20015;-71
2021/06/02 09:09:05;;;;;;;3.55;1.85;;;;;;;15.82;46.61;94155.34;5099966;28;20044;-73
2021/06/02 09:11:43;;;;;;;6.20;1.77;;;;;;;15.77;47.70;94156.38;5102596;28;20073;-72
2021/06/02 09:14:30;;;;;;;2.13;1.40;;;;;;;15.65;48.36;94157.13;5100596;28;20023;-71
2021/06/02 09:17:01;;;;;;;4.47;1.48;;;;;;;15.64;47.36;94158.25;5107934;28;20034;-71
2021/06/02 09:19:32;;;;;;;2.55;1.60;;;;;;;15.78;46.68;94146.41;5099677;28;20023;-72
2021/06/02 09:21:59;;;;;;;2.60;1.27;;;;;;;15.86;45.25;94147.41;5097484;28;20035;-72
2021/06/02 09:24:47;;;;;;;2.30;1.30;;;;;;;15.80;45.41;94139.56;5111013;28;20023;-72
2021/06/02 09:27:14;;;;;;;3.83;1.30;;;;;;;15.77;45.80;94137.56;5109975;28;20115;-71
2021/06/02 09:29:54;;;;;;;3.60;1.60;;;;;;;15.88;47.19;94147.84;5096218;28;20032;-72
2021/06/02 09:32:21;;;;;;;5.10;2.03;;;;;;;15.94;47.43;94146.50;5100725;28;20034;-72
2021/06/02 09:34:47;;;;;;;4.15;1.40;;;;;;;16.18;45.66;94138.34;5096472;28;20028;-72
2021/06/02 09:37:14;;;;;;;8.60;1.30;;;;;;;16.29;45.65;94143.25;5108159;27;20498;-72
2021/06/02 09:39:42;;;;;;;6.65;1.52;;;;;;;16.21;45.72;94148.41;5097908;28;20020;-70
2021/06/02 09:42:27;;;;;;;5.03;1.83;;;;;;;16.18;45.99;94145.63;5097248;28;20047;-70
2021/06/02 09:45:02;;;;;;;2.38;1.40;;;;;;;16.11;47.05;94146.22;5096367;28;20039;-70
2021/06/02 09:47:43;;;;;;;4.97;1.60;;;;;;;16.20;47.73;94146.88;5094843;28;20068;-71
2021/06/02 09:50:10;;;;;;;7.43;1.77;;;;;;;16.12;45.41;94147.78;5103781;28;20483;-71
2021/06/02 09:52:48;;;;;;;8.32;1.45;;;;;;;16.00;44.99;94150.50;5098886;28;20032;-71
2021/06/02 09:55:24;;;;;;;5.18;1.40;;;;;;;15.86;45.18;94142.03;5103060;28;20390;-72
2021/06/02 09:58:05;;;;;;;7.28;1.92;;;;;;;15.86;45.81;94142.03;5104233;28;20459;-71
2021/06/02 10:00:31;;;;;;;6.90;1.92;;;;;;;15.88;46.92;94145.16;5099420;28;20031;-71
2021/06/02 10:03:12;;;;;;;9.45;2.42;;;;;;;15.84;46.55;94153.88;5098683;27;20026;-72
2021/06/02 10:05:42;;;;;;;4.43;2.10;;;;;;;15.86;45.61;94158.16;5107156;28;20490;-72
2021/06/02 10:08:12;;;;;;;8.95;1.83;;;;;;;15.89;46.11;94147.50;5104790;28;20050;-72
2021/06/02 10:10:40;;;;;;;3.75;1.77;;;;;;;15.99;45.58;94146.25;5098850;28;20028;-72
2021/06/02 10:13:07;;;;;;;3.78;1.67;;;;;;;16.05;46.62;94144.88;5101393;28;20027;-72
2021/06/02 10:15:41;;;;;;;6.30;2.25;;;;;;;16.12;46.84;94145.09;5103767;28;20024;-71
2021/06/02 10:18:29;;;;;;;7.00;1.60;;;;;;;16.05;45.99;94151.03;5102549;28;20035;-71
2021/06/02 10:21:04;;;;;;;7.75;1.70;;;;;;;16.04;44.63;94151.41;5090810;28;20052;-71
2021/06/02 10:23:40;;;;;;;5.53;1.92;;;;;;;16.13;46.33;94138.59;5105768;28;20028;-71
2021/06/02 10:26:06;;;;;;;4.20;1.80;;;;;;;16.10;44.96;94147.34;5094503;28;20048;-70
2021/06/02 10:28:32;;;;;;;9.10;1.88;;;;;;;16.16;44.46;94147.88;5096597;28;20028;-71
2021/06/02 10:31:05;;;;;;;12.63;2.50;;;;;;;16.22;44.80;94143.81;5111112;28;20497;-71
2021/06/02 10:33:31;;;;;;;;;;;;;;;16.44;45.09;94145.19;5104920;28;20020;-73
2021/06/02 10:35:58;;;;;;;3.35;2.03;;;;;;;16.52;44.87;94157.72;5098296;28;19923;-73
2021/06/02 10:38:24;;;;;;;6.00;1.95;;;;;;;16.59;44.59;94149.06;5107672;28;20035;-72
2021/06/02 10:40:51;;;;;;;4.47;1.83;;;;;;;16.76;44.46;94148.75;5098453;28;20028;-76
2021/06/02 10:43:21;;;;;;;4.05;1.90;;;;;;;16.82;43.87;94149.31;5102627;28;20039;-74
2021/06/02 10:45:59;;;;;;;4.38;2.25;;;;;;;16.69;44.14;94151.25;5097749;28;20028;-74
2021/06/02 10:48:49;;;;;;;4.28;1.80;;;;;;;16.82;44.23;94144.72;5103190;28;20059;-73
2021/06/02 10:51:43;;;;;;;3.78;1.92;;;;;;;16.93;44.36;94144.97;5104134;28;20493;-74
2021/06/02 10:54:14;;;;;;;6.70;2.13;;;;;;;17.03;42.80;94144.47;5105754;28;20024;-73
2021/06/02 10:56:42;;;;;;;3.30;1.90;;;;;;;17.18;43.79;94153.69;5097646;28;20020;-72
2021/06/02 10:59:32;;;;;;;6.30;2.10;;;;;;;17.39;43.94;94148.03;5100728;28;20028;-72
2021/06/02 11:02:05;;;;;;;10.73;2.20;;;;;;;17.55;43.19;94149.94;5096741;28;20039;-78
2021/06/02 11:04:31;;;;;;;9.23;2.42;;;;;;;17.60;42.60;94150.44;5105689;28;20035;-75
2021/06/02 11:07:19;;;;;;;6.78;1.90;;;;;;;17.70;42.98;94156.44;5102796;28;20144;-72
2021/06/02 11:09:55;;;;;;;5.32;1.95;;;;;;;17.73;42.89;94151.13;5095739;28;20059;-74
2021/06/02 11:12:20;;;;;;;6.53;1.90;;;;;;;17.69;43.22;94154.84;5105565;28;20047;-75
2021/06/02 11:14:46;;;;;;;8.60;1.90;;;;;;;17.66;42.56;94148.25;5104269;28;20027;-74
2021/06/02 11:17:13;;;;;;;7.00;2.00;;;;;;;17.79;42.95;94163.19;5104355;28;20063;-75
2021/06/02 11:19:57;;;;;;;8.55;2.30;;;;;;;17.79;42.68;94152.41;5100935;28;20059;-75
2021/06/02 11:22:25;;;;;;;5.53;1.80;;;;;;;17.89;42.12;94156.53;5100271;28;20023;-74
2021/06/02 11:24:52;;;;;;;7.22;1.92;;;;;;;18.02;42.17;94155.25;5103847;28;20032;-77
2021/06/02 11:27:17;;;;;;;8.82;2.30;;;;;;;18.19;41.46;94147.88;5100858;28;20423;-74
2021/06/02 11:29:52;;;;;;;11.20;1.92;;;;;;;18.38;41.24;94157.94;5105539;28;20032;-72
2021/06/02 11:32:22;;;;;;;6.97;2.00;;;;;;;18.50;41.29;94152.38;5101568;28;20046;-74
2021/06/02 11:34:52;;;;;;;7.63;2.10;;;;;;;18.60;40.91;94157.19;5099749;28;20034;-74
2021/06/02 11:37:22;;;;;;;8.57;1.80;;;;;;;18.72;41.17;94155.47;5099775;28;20027;-76
2021/06/02 11:39:51;;;;;;;4.22;2.20;;;;;;;18.73;40.73;94151.66;5098280;28;20028;-72
2021/06/02 11:42:46;;;;;;;5.72;2.10;;;;;;;18.92;41.56;94148.94;5094191;28;20043;-74
2021/06/02 11:45:24;;;;;;;8.95;2.05;;;;;;;19.03;39.37;94144.50;5104098;28;20132;-74
2021/06/02 11:47:52;;;;;;;6.05;2.33;;;;;;;19.02;39.23;94148.34;5104139;28;20031;-74
2021/06/02 11:50:23;;;;;;;7.10;2.25;;;;;;;19.26;41.19;94146.44;5099151;28;20103;-74
2021/06/02 11:52:57;;;;;;;3.35;2.20;;;;;;;19.58;40.56;94138.84;5101787;28;20038;-73
2021/06/02 11:55:23;;;;;;;5.82;2.35;;;;;;;19.62;38.94;94138.88;5090544;28;20077;-74
2021/06/02 11:57:51;;;;;;;16.20;2.33;;;;;;;19.71;38.27;94147.53;5097671;28;20031;-73
2021/06/02 12:00:25;;;;;;;2.88;1.80;;;;;;;19.72;38.92;94143.72;5099177;28;20051;-72
2021/06/02 12:03:00;;;;;;;3.25;1.98;;;;;;;19.61;40.25;94137.31;5097718;28;20103;-73
2021/06/02 12:05:31;;;;;;;11.02;2.70;;;;;;;19.66;41.31;94131.59;5099195;28;20482;-71
2021/06/02 12:08:03;;;;;;;5.20;2.15;;;;;;;19.92;40.04;94138.19;5099462;28;20398;-71
2021/06/02 12:10:49;;;;;;;6.85;1.90;;;;;;;20.17;40.97;94136.59;5096118;28;20024;-71
2021/06/02 12:13:28;;;;;;;6.10;1.88;;;;;;;20.13;36.96;94138.47;5103692;28;20035;-71